Time,TemperatureF,DewpointF,PressureIn,WindDirection,WindDirectionDegrees,WindSpeedMPH,WindSpeedGustMPH,Humidity,HourlyPrecipIn,Conditions,Clouds,dailyrainin,SolarRadiationWatts/m^2,SoftwareType,DateUTC
2013-03-10 00:00:00,49.8,34.3,30.27,ENE,76,6.9,6.9,55,0.00,CLR,,0.00,0.0,WeatherDisplay:10.37,2013-03-10 05:00:00,
2013-03-10 00:05:00,49.9,34.4,30.26,ENE,78,7.0,7.0,55,0.00,CLR,,0.00,0.0,WeatherDisplay:10.37,2013-03-10 05:05:00,
2013-03-10 00:08:00,49.9,34.4,30.26,East,81,10.4,10.4,55,0.00,CLR,,0.00,0.0,WeatherDisplay:10.37,2013-03-10 05:08:00,
2013-03-10 00:13:00,49.9,34.4,30.26,East,84,6.9,6.9,55,0.00,CLR,,0.00,0.0,WeatherDisplay:10.37,2013-03-10 05:13:00,
2013-03-10 00:18:00,50.0,34.5,30.26,East,86,8.1,8.1,55,0.00,CLR,,0.00,0.0,WeatherDisplay:10.37,2013-03-10 05:18:00,
2013-03-10 00:23:00,50.0,34.5,30.26,East,86,6.9,6.9,55,0.00,CLR,,0.00,0.0,WeatherDisplay:10.37,2013-03-10 05:23:00,
2013-03-10 00:28:00,50.0,34.5,30.26,East,81,10.4,10.4,55,0.00,CLR,,0.00,0.0,WeatherDisplay:10.37,2013-03-10 05:28:00,
2013-03-10 00:33:00,50.0,34.5,30.26,East,90,4.0,4.0,55,0.00,CLR,,0.00,0.0,WeatherDisplay:10.37,2013-03-10 05:33:00,
2013-03-10 00:38:00,50.0,34.5,30.26,East,84,5.8,5.8,55,0.00,CLR,,0.00,0.0,WeatherDisplay:10.37,2013-03-10 05:38:00,
2013-03-10 00:43:00,49.9,33.9,30.26,ESE,107,10.4,10.4,54,0.00,CLR,,0.00,0.0,WeatherDisplay:10.37,2013-03-10 05:43:00,
2013-03-10 00:48:00,49.9,34.4,30.26,East,84,6.9,6.9,55,0.00,CLR,,0.00,0.0,WeatherDisplay:10.37,2013-03-10 05:48:00,
2013-03-10 00:53:00,49.8,34.3,30.26,East,84,4.6,4.6,55,0.00,CLR,,0.00,0.0,WeatherDisplay:10.37,2013-03-10 05:53:00,
2013-03-10 00:58:00,49.8,34.3,30.26,East,82,6.9,6.9,55,0.00,CLR,,0.00,0.0,WeatherDisplay:10.37,2013-03-10 05:58:00,
2013-03-10 01:03:00,49.8,34.3,30.26,East,85,5.8,5.8,55,0.00,CLR,,0.00,0.0,WeatherDisplay:10.37,2013-03-10 06:03:00,
2013-03-10 01:08:00,49.8,34.3,30.26,East,90,6.9,6.9,55,0.00,CLR,,0.00,0.0,WeatherDisplay:10.37,2013-03-10 06:08:00,
2013-03-10 01:13:00,49.8,33.8,30.26,ENE,78,8.1,8.1,54,0.00,CLR,,0.00,0.0,WeatherDisplay:10.37,2013-03-10 06:13:00,
2013-03-10 01:18:00,49.8,34.3,30.25,East,84,6.9,6.9,55,0.00,CLR,,0.00,0.0,WeatherDisplay:10.37,2013-03-10 06:18:00,
2013-03-10 01:23:00,49.7,33.7,30.25,ENE,71,11.5,11.5,54,0.00,CLR,,0.00,0.0,WeatherDisplay:10.37,2013-03-10 06:23:00,
2013-03-10 01:28:00,49.8,34.3,30.25,East,84,9.2,9.2,55,0.00,CLR,,0.00,0.0,WeatherDisplay:10.37,2013-03-10 06:28:00,
2013-03-10 01:33:00,49.8,34.3,30.25,ENE,75,9.2,9.2,55,0.00,CLR,,0.00,0.0,WeatherDisplay:10.37,2013-03-10 06:33:00,
2013-03-10 01:38:00,49.9,34.4,30.25,ENE,70,10.4,10.4,55,0.00,CLR,,0.00,0.0,WeatherDisplay:10.37,2013-03-10 06:38:00,
2013-03-10 01:43:00,49.9,33.9,30.25,East,85,9.2,9.2,54,0.00,CLR,,0.00,0.0,WeatherDisplay:10.37,2013-03-10 06:43:00,
2013-03-10 01:48:00,50.1,34.5,30.25,East,84,8.1,8.1,55,0.00,CLR,,0.00,0.0,WeatherDisplay:10.37,2013-03-10 06:48:00,
2013-03-10 01:53:00,50.0,34.0,30.25,ENE,74,11.5,11.5,54,0.00,CLR,,0.00,0.0,WeatherDisplay:10.37,2013-03-10 06:53:00,
2013-03-10 01:58:00,50.0,34.0,30.25,East,86,10.4,10.4,54,0.00,CLR,,0.00,0.0,WeatherDisplay:10.37,2013-03-10 06:58:00,
2013-03-10 03:03:00,50.0,34.0,30.24,ENE,70,10.4,10.4,54,0.00,CLR,,0.00,0.0,WeatherDisplay:10.37,2013-03-10 07:03:00,
2013-03-10 03:08:00,49.9,33.9,30.24,ENE,74,8.1,8.1,54,0.00,CLR,,0.00,0.0,WeatherDisplay:10.37,2013-03-10 07:08:00,
2013-03-10 03:13:00,49.7,34.2,30.24,ENE,70,6.9,6.9,55,0.00,CLR,,0.00,0.0,WeatherDisplay:10.37,2013-03-10 07:13:00,
2013-03-10 03:18:00,49.6,33.6,30.24,East,89,6.9,6.9,54,0.00,CLR,,0.00,0.0,WeatherDisplay:10.37,2013-03-10 07:18:00,
2013-03-10 03:23:00,49.4,33.9,30.23,East,80,11.5,11.5,55,0.00,CLR,,0.00,0.0,WeatherDisplay:10.37,2013-03-10 07:23:00,
2013-03-10 03:28:00,49.3,33.8,30.23,East,86,11.5,11.5,55,0.00,CLR,,0.00,0.0,WeatherDisplay:10.37,2013-03-10 07:28:00,
2013-03-10 03:33:00,49.3,33.3,30.23,ENE,78,11.5,11.5,54,0.00,CLR,,0.00,0.0,WeatherDisplay:10.37,2013-03-10 07:33:00,
2013-03-10 03:38:00,49.4,33.9,30.22,East,85,10.4,10.4,55,0.00,CLR,,0.00,0.0,WeatherDisplay:10.37,2013-03-10 07:38:00,
2013-03-10 03:43:00,49.3,33.8,30.21,East,88,11.5,11.5,55,0.00,CLR,,0.00,0.0,WeatherDisplay:10.37,2013-03-10 07:43:00,
2013-03-10 03:48:00,49.3,34.3,30.22,East,80,5.8,5.8,56,0.00,CLR,,0.00,0.0,WeatherDisplay:10.37,2013-03-10 07:48:00,
2013-03-10 03:53:00,49.2,33.7,30.23,ENE,71,5.8,5.8,55,0.00,CLR,,0.00,0.0,WeatherDisplay:10.37,2013-03-10 07:53:00,
2013-03-10 03:58:00,49.2,33.7,30.23,ENE,71,4.0,4.0,55,0.00,CLR,,0.00,0.0,WeatherDisplay:10.37,2013-03-10 07:58:00,
2013-03-10 04:03:00,49.1,33.6,30.23,ENE,74,5.8,5.8,55,0.00,CLR,,0.00,0.0,WeatherDisplay:10.37,2013-03-10 08:03:00,
2013-03-10 04:08:00,49.0,33.5,30.22,ENE,76,5.8,5.8,55,0.00,CLR,,0.00,0.0,WeatherDisplay:10.37,2013-03-10 08:08:00,
2013-03-10 04:13:00,49.0,34.0,30.21,East,88,9.2,9.2,56,0.00,CLR,,0.00,0.0,WeatherDisplay:10.37,2013-03-10 08:13:00,
2013-03-10 04:18:00,48.8,34.2,30.21,East,94,9.2,9.2,57,0.00,CLR,,0.00,0.0,WeatherDisplay:10.37,2013-03-10 08:18:00,
2013-03-10 04:23:00,48.7,34.1,30.21,East,82,6.9,6.9,57,0.00,CLR,,0.00,0.0,WeatherDisplay:10.37,2013-03-10 08:23:00,
2013-03-10 04:28:00,48.8,34.2,30.21,East,79,8.1,8.1,57,0.00,CLR,,0.00,0.0,WeatherDisplay:10.37,2013-03-10 08:28:00,
2013-03-10 04:33:00,49.0,33.5,30.21,East,86,4.6,4.6,55,0.00,CLR,,0.00,0.0,WeatherDisplay:10.37,2013-03-10 08:33:00,
2013-03-10 04:38:00,49.0,33.5,30.21,East,86,8.1,8.1,55,0.00,CLR,,0.00,0.0,WeatherDisplay:10.37,2013-03-10 08:38:00,
2013-03-10 04:43:00,49.1,34.1,30.21,East,84,5.8,5.8,56,0.00,CLR,,0.00,0.0,WeatherDisplay:10.37,2013-03-10 08:43:00,
2013-03-10 04:48:00,49.1,34.1,30.21,ENE,68,10.4,10.4,56,0.00,CLR,,0.00,0.0,WeatherDisplay:10.37,2013-03-10 08:48:00,
2013-03-10 04:53:00,49.2,33.7,30.21,East,98,10.4,10.4,55,0.00,CLR,,0.00,0.0,WeatherDisplay:10.37,2013-03-10 08:53:00,
2013-03-10 04:58:00,49.3,33.8,30.21,East,90,4.6,4.6,55,0.00,CLR,,0.00,0.0,WeatherDisplay:10.37,2013-03-10 08:58:00,
2013-03-10 05:03:00,49.3,33.8,30.21,ENE,73,6.9,6.9,55,0.00,CLR,,0.00,0.0,WeatherDisplay:10.37,2013-03-10 09:03:00,
2013-03-10 05:08:00,49.2,33.7,30.23,ENE,74,5.8,5.8,55,0.00,CLR,,0.00,0.0,WeatherDisplay:10.37,2013-03-10 09:08:00,
2013-03-10 05:13:00,49.1,34.1,30.22,ENE,74,4.6,4.6,56,0.00,CLR,,0.00,0.0,WeatherDisplay:10.37,2013-03-10 09:13:00,
2013-03-10 05:18:00,49.0,34.0,30.22,ENE,74,4.0,4.0,56,0.00,CLR,,0.00,0.0,WeatherDisplay:10.37,2013-03-10 09:18:00,
2013-03-10 05:23:00,49.0,33.5,30.22,East,87,6.9,6.9,55,0.00,CLR,,0.00,0.0,WeatherDisplay:10.37,2013-03-10 09:23:00,
2013-03-10 05:28:00,48.9,33.9,30.22,East,86,9.2,9.2,56,0.00,CLR,,0.00,0.0,WeatherDisplay:10.37,2013-03-10 09:28:00,
2013-03-10 05:33:00,48.9,33.9,30.22,East,87,6.9,6.9,56,0.00,CLR,,0.00,0.0,WeatherDisplay:10.37,2013-03-10 09:33:00,
2013-03-10 05:38:00,48.9,33.4,30.22,East,92,6.9,6.9,55,0.00,CLR,,0.00,0.0,WeatherDisplay:10.37,2013-03-10 09:38:00,
2013-03-10 05:43:00,48.9,34.3,30.24,East,92,3.5,3.5,57,0.00,CLR,,0.00,0.0,WeatherDisplay:10.37,2013-03-10 09:43:00,
2013-03-10 05:48:00,48.7,33.7,30.24,East,92,4.0,4.0,56,0.00,CLR,,0.00,0.0,WeatherDisplay:10.37,2013-03-10 09:48:00,
2013-03-10 05:54:00,48.7,34.1,30.23,East,92,9.0,9.0,57,0.00,CLR,,0.00,0.0,WeatherDisplay:10.37,2013-03-10 09:54:00,
2013-03-10 05:59:00,48.6,34.5,30.24,East,92,3.5,3.5,58,0.00,CLR,,0.00,0.0,WeatherDisplay:10.37,2013-03-10 09:59:00,
2013-03-10 06:04:00,48.6,34.0,30.24,East,92,0.0,0.0,57,0.00,CLR,,0.00,0.0,WeatherDisplay:10.37,2013-03-10 10:04:00,
2013-03-10 06:09:00,48.5,33.9,30.25,East,92,3.5,3.5,57,0.00,CLR,,0.00,0.0,WeatherDisplay:10.37,2013-03-10 10:09:00,
2013-03-10 06:14:00,48.4,34.7,30.24,East,92,6.9,6.9,59,0.00,CLR,,0.00,0.0,WeatherDisplay:10.37,2013-03-10 10:14:00,
2013-03-10 06:19:00,48.1,34.9,30.24,East,92,3.5,3.5,60,0.00,CLR,,0.00,0.0,WeatherDisplay:10.37,2013-03-10 10:19:00,
2013-03-10 06:24:00,47.9,34.3,30.25,East,92,6.0,6.0,59,0.00,CLR,,0.00,0.0,WeatherDisplay:10.37,2013-03-10 10:24:00,
2013-03-10 06:29:00,47.7,34.9,30.24,East,92,5.8,5.8,61,0.00,CLR,,0.00,0.0,WeatherDisplay:10.37,2013-03-10 10:29:00,
2013-03-10 06:34:00,47.6,34.8,30.24,East,84,9.0,9.0,61,0.00,CLR,,0.00,0.0,WeatherDisplay:10.37,2013-03-10 10:34:00,
2013-03-10 06:39:00,47.7,34.1,30.24,East,97,7.0,7.0,59,0.00,CLR,,0.00,0.0,WeatherDisplay:10.37,2013-03-10 10:39:00,
2013-03-10 06:44:00,47.7,34.1,30.25,East,97,5.8,5.8,59,0.00,CLR,,0.00,0.0,WeatherDisplay:10.37,2013-03-10 10:44:00,
2013-03-10 06:49:00,47.7,34.1,30.24,East,89,10.4,10.4,59,0.00,CLR,,0.00,0.0,WeatherDisplay:10.37,2013-03-10 10:49:00,
2013-03-10 06:54:00,47.7,34.5,30.24,East,87,5.8,5.8,60,0.00,CLR,,0.00,0.0,WeatherDisplay:10.37,2013-03-10 10:54:00,
2013-03-10 06:59:00,47.5,34.3,30.24,East,87,6.9,6.9,60,0.00,CLR,,0.00,0.0,WeatherDisplay:10.37,2013-03-10 10:59:00,
2013-03-10 07:04:00,47.4,34.2,30.24,East,87,3.5,3.5,60,0.00,CLR,,0.00,0.0,WeatherDisplay:10.37,2013-03-10 11:04:00,
2013-03-10 07:09:00,47.3,33.7,30.24,East,87,4.0,4.0,59,0.00,CLR,,0.00,0.0,WeatherDisplay:10.37,2013-03-10 11:09:00,
2013-03-10 07:14:00,47.2,33.6,30.24,East,87,8.1,8.1,59,0.00,CLR,,0.00,0.0,WeatherDisplay:10.37,2013-03-10 11:14:00,
2013-03-10 07:19:00,47.1,33.9,30.25,East,88,4.6,4.6,60,0.00,CLR,,0.00,0.0,WeatherDisplay:10.37,2013-03-10 11:19:00,
2013-03-10 07:24:00,47.0,33.8,30.25,East,88,1.2,0.0,60,0.00,CLR,,0.00,0.0,WeatherDisplay:10.37,2013-03-10 11:24:00,
2013-03-10 07:29:00,46.9,33.7,30.25,East,88,3.5,3.5,60,0.00,CLR,,0.00,0.0,WeatherDisplay:10.37,2013-03-10 11:29:00,
2013-03-10 07:34:00,46.8,34.0,30.26,East,88,4.6,4.6,61,0.00,CLR,,0.00,0.0,WeatherDisplay:10.37,2013-03-10 11:34:00,
2013-03-10 07:39:00,46.7,34.0,30.26,East,88,3.5,3.5,61,0.00,CLR,,0.00,0.0,WeatherDisplay:10.37,2013-03-10 11:39:00,
2013-03-10 07:44:00,46.6,34.3,30.27,East,88,3.5,3.5,62,0.00,CLR,,0.00,0.0,WeatherDisplay:10.37,2013-03-10 11:44:00,
2013-03-10 07:49:00,46.4,34.1,30.27,East,88,0.0,0.0,62,0.00,CLR,,0.00,0.0,WeatherDisplay:10.37,2013-03-10 11:49:00,
2013-03-10 07:54:00,46.4,34.1,30.27,East,88,4.0,4.0,62,0.00,CLR,,0.00,0.0,WeatherDisplay:10.37,2013-03-10 11:54:00,
2013-03-10 07:59:00,46.3,34.4,30.27,East,88,3.5,3.5,63,0.00,CLR,,0.00,0.0,WeatherDisplay:10.37,2013-03-10 11:59:00,
2013-03-10 08:04:00,46.2,33.9,30.27,East,88,4.0,4.0,62,0.00,CLR,,0.00,0.0,WeatherDisplay:10.37,2013-03-10 12:04:00,
2013-03-10 08:09:00,46.2,34.3,30.27,East,88,3.5,3.5,63,0.00,CLR,,0.00,9.0,WeatherDisplay:10.37,2013-03-10 12:09:00,
2013-03-10 08:14:00,46.2,34.3,30.27,East,88,4.6,4.6,63,0.00,CLR,,0.00,21.0,WeatherDisplay:10.37,2013-03-10 12:14:00,
2013-03-10 08:19:00,46.2,34.3,30.27,East,88,5.0,5.1,63,0.00,CLR,,0.00,37.0,WeatherDisplay:10.37,2013-03-10 12:19:00,
2013-03-10 08:24:00,46.3,34.8,30.27,East,88,6.0,6.0,64,0.00,CLR,,0.00,51.0,WeatherDisplay:10.37,2013-03-10 12:24:00,
2013-03-10 08:29:00,46.3,35.2,30.27,East,88,5.8,5.8,65,0.00,CLR,,0.00,69.0,WeatherDisplay:10.37,2013-03-10 12:29:00,
2013-03-10 08:34:00,46.5,35.0,30.27,East,88,6.0,6.0,64,0.00,CLR,,0.00,77.0,WeatherDisplay:10.37,2013-03-10 12:34:00,
2013-03-10 08:39:00,46.8,34.9,30.27,East,90,8.1,8.1,63,0.00,CLR,,0.00,74.0,WeatherDisplay:10.37,2013-03-10 12:39:00,
2013-03-10 08:44:00,47.2,35.2,30.27,East,90,5.0,5.0,63,0.00,CLR,,0.00,69.0,WeatherDisplay:10.37,2013-03-10 12:44:00,
2013-03-10 08:49:00,47.5,35.1,30.27,East,90,4.0,4.0,62,0.00,CLR,,0.00,62.0,WeatherDisplay:10.37,2013-03-10 12:49:00,
2013-03-10 08:54:00,47.8,35.4,30.27,East,95,4.6,4.6,62,0.00,CLR,,0.00,62.0,WeatherDisplay:10.37,2013-03-10 12:54:00,
2013-03-10 08:59:00,48.1,35.7,30.27,East,95,6.9,6.9,62,0.00,CLR,,0.00,60.0,WeatherDisplay:10.37,2013-03-10 12:59:00,
2013-03-10 09:04:00,48.2,35.8,30.27,East,98,5.8,5.8,62,0.00,OVC,,0.00,58.0,WeatherDisplay:10.37,2013-03-10 13:04:00,
2013-03-10 09:09:00,48.2,35.8,30.27,East,97,4.6,4.6,62,0.00,OVC,,0.00,69.0,WeatherDisplay:10.37,2013-03-10 13:09:00,
2013-03-10 09:14:00,48.3,35.9,30.27,East,96,9.2,9.2,62,0.00,OVC,,0.00,77.0,WeatherDisplay:10.37,2013-03-10 13:14:00,
2013-03-10 09:19:00,48.5,36.1,30.26,East,95,11.5,11.5,62,0.00,OVC,,0.00,86.0,WeatherDisplay:10.37,2013-03-10 13:19:00,
2013-03-10 09:24:00,48.7,35.8,30.26,East,91,11.5,11.5,61,0.00,OVC,,0.00,83.0,WeatherDisplay:10.37,2013-03-10 13:24:00,
2013-03-10 09:29:00,49.1,35.8,30.26,East,96,9.2,9.2,60,0.00,OVC,,0.00,128.0,WeatherDisplay:10.37,2013-03-10 13:29:00,
2013-03-10 09:34:00,49.3,36.0,30.26,East,97,6.9,6.9,60,0.00,OVC,,0.00,93.0,WeatherDisplay:10.37,2013-03-10 13:34:00,
2013-03-10 09:39:00,49.6,36.3,30.26,ESE,123,10.4,10.4,60,0.00,OVC,,0.00,77.0,WeatherDisplay:10.37,2013-03-10 13:39:00,
2013-03-10 09:44:00,49.7,35.9,30.25,East,100,10.4,10.4,59,0.00,OVC,,0.00,135.0,WeatherDisplay:10.37,2013-03-10 13:44:00,
2013-03-10 09:49:00,49.8,36.5,30.25,ESE,108,8.1,8.1,60,0.00,OVC,,0.00,121.0,WeatherDisplay:10.37,2013-03-10 13:49:00,
2013-03-10 09:54:00,50.0,36.7,30.25,ESE,104,6.9,6.9,60,0.00,OVC,,0.00,227.0,WeatherDisplay:10.37,2013-03-10 13:54:00,
2013-03-10 09:59:00,50.4,37.0,30.26,ESE,102,10.4,10.4,60,0.00,OVC,,0.00,294.0,WeatherDisplay:10.37,2013-03-10 13:59:00,
2013-03-10 10:04:00,50.7,36.9,30.26,East,95,10.0,10.0,59,0.00,OVC,,0.00,260.0,WeatherDisplay:10.37,2013-03-10 14:04:00,
2013-03-10 10:09:00,51.1,36.8,30.26,East,94,6.9,6.9,58,0.00,OVC,,0.00,262.0,WeatherDisplay:10.37,2013-03-10 14:09:00,
2013-03-10 10:14:00,51.4,37.1,30.27,ESE,112,6.9,6.9,58,0.00,OVC,,0.00,408.0,WeatherDisplay:10.37,2013-03-10 14:14:00,
2013-03-10 10:19:00,51.8,36.6,30.26,ESE,111,11.5,11.5,56,0.00,OVC,,0.00,434.0,WeatherDisplay:10.37,2013-03-10 14:19:00,
2013-03-10 10:24:00,52.3,37.5,30.26,ESE,123,10.4,10.4,57,0.00,OVC,,0.00,448.0,WeatherDisplay:10.37,2013-03-10 14:24:00,
2013-03-10 10:29:00,52.8,37.1,30.26,East,96,11.5,11.5,55,0.00,OVC,,0.00,462.0,WeatherDisplay:10.37,2013-03-10 14:29:00,
2013-03-10 10:34:00,53.2,37.4,30.25,East,84,12.7,12.7,55,0.00,OVC,,0.00,475.0,WeatherDisplay:10.37,2013-03-10 14:34:00,
2013-03-10 10:39:00,53.6,37.3,30.25,East,100,11.5,11.5,54,0.00,OVC,,0.00,485.0,WeatherDisplay:10.37,2013-03-10 14:39:00,
2013-03-10 10:44:00,54.0,38.6,30.25,SE,130,13.0,13.0,56,0.00,OVC,,0.00,492.0,WeatherDisplay:10.37,2013-03-10 14:44:00,
2013-03-10 10:49:00,54.3,38.0,30.24,SE,125,9.2,9.2,54,0.00,OVC,,0.00,508.0,WeatherDisplay:10.37,2013-03-10 14:49:00,
2013-03-10 10:54:00,54.6,38.3,30.24,ESE,121,11.5,11.5,54,0.00,OVC,,0.00,520.0,WeatherDisplay:10.37,2013-03-10 14:54:00,
2013-03-10 10:59:00,54.9,37.6,30.24,SE,130,4.6,4.6,52,0.00,OVC,,0.00,520.0,WeatherDisplay:10.37,2013-03-10 14:59:00,
2013-03-10 11:04:00,55.3,38.0,30.24,ESE,106,11.5,11.5,52,0.00,OVC,,0.00,550.0,WeatherDisplay:10.37,2013-03-10 15:04:00,
2013-03-10 11:09:00,55.8,37.4,30.24,SE,133,12.7,12.7,50,0.00,OVC,,0.00,563.0,WeatherDisplay:10.37,2013-03-10 15:09:00,
2013-03-10 11:14:00,56.2,38.3,30.24,ESE,119,10.4,10.4,51,0.00,OVC,,0.00,582.0,WeatherDisplay:10.37,2013-03-10 15:14:00,
2013-03-10 11:19:00,56.6,39.2,30.24,SE,143,17.3,17.3,52,0.00,OVC,,0.00,598.0,WeatherDisplay:10.37,2013-03-10 15:19:00,
2013-03-10 11:24:00,56.8,38.3,30.24,ESE,103,11.5,11.5,50,0.00,OVC,,0.00,612.0,WeatherDisplay:10.37,2013-03-10 15:24:00,
2013-03-10 11:29:00,57.2,37.7,30.24,ESE,123,10.4,10.4,48,0.00,OVC,,0.00,621.0,WeatherDisplay:10.37,2013-03-10 15:29:00,
2013-03-10 11:34:00,57.4,37.9,30.25,ESE,102,18.4,18.4,48,0.00,OVC,,0.00,629.0,WeatherDisplay:10.37,2013-03-10 15:34:00,
2013-03-10 11:39:00,57.6,37.5,30.24,ESE,105,12.7,12.7,47,0.00,OVC,,0.00,643.0,WeatherDisplay:10.37,2013-03-10 15:39:00,
2013-03-10 11:44:00,57.8,38.8,30.24,ESE,107,8.1,8.1,49,0.00,OVC,,0.00,657.0,WeatherDisplay:10.37,2013-03-10 15:44:00,
2013-03-10 11:49:00,58.0,37.3,30.24,East,84,13.8,13.8,46,0.00,OVC,,0.00,661.0,WeatherDisplay:10.37,2013-03-10 15:49:00,
2013-03-10 11:54:00,58.4,37.7,30.24,ESE,123,11.5,11.5,46,0.00,OVC,,0.00,673.0,WeatherDisplay:10.37,2013-03-10 15:54:00,
2013-03-10 11:59:00,58.8,39.7,30.23,ESE,106,6.0,6.0,49,0.00,OVC,,0.00,687.0,WeatherDisplay:10.37,2013-03-10 15:59:00,
2013-03-10 12:04:00,59.4,38.0,30.23,ESE,106,12.7,12.7,45,0.00,OVC,,0.00,708.0,WeatherDisplay:10.37,2013-03-10 16:04:00,
2013-03-10 12:09:00,59.5,37.6,30.23,ESE,103,11.5,11.5,44,0.00,OVC,,0.00,754.0,WeatherDisplay:10.37,2013-03-10 16:09:00,
2013-03-10 12:14:00,60.1,38.1,30.23,ESE,114,6.9,6.9,44,0.00,OVC,,0.00,846.0,WeatherDisplay:10.37,2013-03-10 16:14:00,
2013-03-10 12:19:00,60.7,39.2,30.23,ESE,121,16.1,16.1,45,0.00,OVC,,0.00,842.0,WeatherDisplay:10.37,2013-03-10 16:19:00,
2013-03-10 12:24:00,61.1,38.4,30.23,SSE,156,16.0,16.0,43,0.00,OVC,,0.00,584.0,WeatherDisplay:10.37,2013-03-10 16:24:00,
2013-03-10 12:29:00,61.1,39.0,30.24,SE,128,15.0,15.0,44,0.00,OVC,,0.00,492.0,WeatherDisplay:10.37,2013-03-10 16:29:00,
2013-03-10 12:34:00,60.8,38.1,30.23,SE,135,19.6,19.6,43,0.00,OVC,,0.00,807.0,WeatherDisplay:10.37,2013-03-10 16:34:00,
2013-03-10 12:39:00,61.0,38.3,30.23,ESE,120,16.1,16.1,43,0.00,OVC,,0.00,766.0,WeatherDisplay:10.37,2013-03-10 16:39:00,
2013-03-10 12:44:00,61.2,37.3,30.22,East,96,12.7,12.7,41,0.00,OVC,,0.00,775.0,WeatherDisplay:10.37,2013-03-10 16:44:00,
2013-03-10 12:49:00,61.3,39.8,30.22,SE,145,9.2,9.2,45,0.00,OVC,,0.00,780.0,WeatherDisplay:10.37,2013-03-10 16:49:00,
2013-03-10 12:54:00,61.3,37.4,30.22,SE,136,19.6,19.6,41,0.00,OVC,,0.00,796.0,WeatherDisplay:10.37,2013-03-10 16:54:00,
2013-03-10 12:59:00,61.4,38.7,30.22,South,184,5.8,5.8,43,0.00,CLR,,0.00,770.0,WeatherDisplay:10.37,2013-03-10 16:59:00,
2013-03-10 13:05:00,61.6,38.3,30.22,South,183,17.3,17.3,42,0.00,CLR,,0.00,701.0,WeatherDisplay:10.37,2013-03-10 17:05:00,
2013-03-10 13:10:00,61.9,37.3,30.22,SE,134,11.5,11.5,40,0.00,CLR,,0.00,455.0,WeatherDisplay:10.37,2013-03-10 17:10:00,
2013-03-10 13:15:00,62.1,38.1,30.22,SE,130,17.3,17.3,41,0.00,CLR,,0.00,847.0,WeatherDisplay:10.37,2013-03-10 17:15:00,
2013-03-10 13:20:00,62.5,37.8,30.22,SE,140,16.1,16.1,40,0.00,CLR,,0.00,923.0,WeatherDisplay:10.37,2013-03-10 17:20:00,
2013-03-10 13:25:00,62.5,37.8,30.22,SE,139,8.0,8.0,40,0.00,CLR,,0.00,403.0,WeatherDisplay:10.37,2013-03-10 17:25:00,
2013-03-10 13:30:00,62.7,38.6,30.22,ESE,111,12.0,12.0,41,0.00,CLR,,0.00,1011.0,WeatherDisplay:10.37,2013-03-10 17:30:00,
2013-03-10 13:35:00,63.1,39.0,30.22,South,183,7.0,7.0,41,0.00,CLR,,0.00,874.0,WeatherDisplay:10.37,2013-03-10 17:35:00,
2013-03-10 13:40:00,63.4,38.0,30.21,South,177,17.3,17.3,39,0.00,CLR,,0.00,930.0,WeatherDisplay:10.37,2013-03-10 17:40:00,
2013-03-10 13:45:00,63.5,36.0,30.21,ESE,115,18.4,18.4,36,0.00,CLR,,0.00,972.0,WeatherDisplay:10.37,2013-03-10 17:45:00,
2013-03-10 13:50:00,63.4,37.3,30.20,South,174,10.4,10.4,38,0.00,CLR,,0.00,698.0,WeatherDisplay:10.37,2013-03-10 17:50:00,
2013-03-10 13:55:00,63.3,36.6,30.20,SE,138,3.5,3.5,37,0.00,CLR,,0.00,698.0,WeatherDisplay:10.37,2013-03-10 17:55:00,
2013-03-10 14:00:00,63.4,38.0,30.20,SE,137,10.0,10.0,39,0.00,CLR,,0.00,752.0,WeatherDisplay:10.37,2013-03-10 18:00:00,
2013-03-10 14:05:00,63.7,38.3,30.20,ESE,121,10.0,10.0,39,0.00,CLR,,0.00,522.0,WeatherDisplay:10.37,2013-03-10 18:05:00,
2013-03-10 14:10:00,63.8,37.7,30.20,SSE,166,12.7,12.7,38,0.00,CLR,,0.00,415.0,WeatherDisplay:10.37,2013-03-10 18:10:00,
2013-03-10 14:15:00,63.7,36.9,30.20,ESE,113,11.0,11.0,37,0.00,CLR,,0.00,446.0,WeatherDisplay:10.37,2013-03-10 18:15:00,
2013-03-10 14:20:00,63.5,38.1,30.19,ESE,120,3.0,17.0,39,0.00,CLR,,0.00,406.0,WeatherDisplay:10.37,2013-03-10 18:20:00,
2013-03-10 14:25:00,63.1,37.7,30.19,SE,131,15.0,15.0,39,0.00,CLR,,0.00,422.0,WeatherDisplay:10.37,2013-03-10 18:25:00,
2013-03-10 14:30:00,63.0,37.0,30.19,SE,135,8.0,16.0,38,0.00,CLR,,0.00,480.0,WeatherDisplay:10.37,2013-03-10 18:30:00,
2013-03-10 14:35:00,63.1,37.1,30.19,SE,130,12.7,12.7,38,0.00,CLR,,0.00,506.0,WeatherDisplay:10.37,2013-03-10 18:35:00,
2013-03-10 14:40:00,62.9,38.2,30.19,SSE,155,4.6,4.6,40,0.00,CLR,,0.00,464.0,WeatherDisplay:10.37,2013-03-10 18:40:00,
2013-03-10 14:45:00,62.9,38.8,30.18,SSE,165,13.8,13.8,41,0.00,CLR,,0.00,455.0,WeatherDisplay:10.37,2013-03-10 18:45:00,
2013-03-10 14:50:00,62.9,37.5,30.18,SSE,161,18.4,18.4,39,0.00,CLR,,0.00,446.0,WeatherDisplay:10.37,2013-03-10 18:50:00,
2013-03-10 14:55:00,62.8,39.4,30.17,ESE,114,6.9,6.9,42,0.00,CLR,,0.00,503.0,WeatherDisplay:10.37,2013-03-10 18:55:00,
2013-03-10 15:00:00,62.9,37.5,30.17,ESE,120,12.7,12.7,39,0.00,CLR,,0.00,494.0,WeatherDisplay:10.37,2013-03-10 19:00:00,
2013-03-10 15:05:00,62.9,38.8,30.17,East,101,9.2,9.2,41,0.00,CLR,,0.00,610.0,WeatherDisplay:10.37,2013-03-10 19:05:00,
2013-03-10 15:10:00,63.2,38.5,30.16,SE,128,12.7,12.7,40,0.00,CLR,,0.00,596.0,WeatherDisplay:10.37,2013-03-10 19:10:00,
2013-03-10 15:15:00,63.5,38.7,30.16,SSE,157,17.3,17.3,40,0.00,CLR,,0.00,455.0,WeatherDisplay:10.37,2013-03-10 19:15:00,
2013-03-10 15:20:00,63.6,38.2,30.16,ESE,119,11.5,11.5,39,0.00,CLR,,0.00,496.0,WeatherDisplay:10.37,2013-03-10 19:20:00,
2013-03-10 15:25:00,63.7,38.9,30.16,East,101,5.8,5.8,40,0.00,CLR,,0.00,800.0,WeatherDisplay:10.37,2013-03-10 19:25:00,
2013-03-10 15:30:00,64.4,40.2,30.16,SSE,150,12.7,12.7,41,0.00,CLR,,0.00,946.0,WeatherDisplay:10.37,2013-03-10 19:30:00,
2013-03-10 15:35:00,65.2,38.9,30.16,ESE,121,15.0,15.0,38,0.00,CLR,,0.00,786.0,WeatherDisplay:10.37,2013-03-10 19:35:00,
2013-03-10 15:40:00,65.7,38.7,30.16,East,100,2.0,4.2,37,0.00,CLR,,0.00,647.0,WeatherDisplay:10.37,2013-03-10 19:40:00,
2013-03-10 15:45:00,65.9,38.9,30.16,SE,132,13.8,13.8,37,0.00,CLR,,0.00,722.0,WeatherDisplay:10.37,2013-03-10 19:45:00,
2013-03-10 15:50:00,66.0,38.3,30.16,SE,146,9.2,9.2,36,0.00,CLR,,0.00,715.0,WeatherDisplay:10.37,2013-03-10 19:50:00,
2013-03-10 15:55:00,66.3,37.8,30.15,ESE,123,17.3,17.3,35,0.00,CLR,,0.00,701.0,WeatherDisplay:10.37,2013-03-10 19:55:00,
2013-03-10 16:00:00,66.5,38.0,30.15,SE,132,13.8,13.8,35,0.00,FEW,,0.00,383.0,WeatherDisplay:10.37,2013-03-10 20:00:00,
2013-03-10 16:05:00,65.8,36.6,30.15,SSE,158,10.0,10.0,34,0.00,SCT,,0.00,378.0,WeatherDisplay:10.37,2013-03-10 20:05:00,
2013-03-10 16:10:00,65.4,37.0,30.15,SSE,153,10.4,10.4,35,0.00,SCT,,0.00,387.0,WeatherDisplay:10.37,2013-03-10 20:10:00,
2013-03-10 16:15:00,65.2,38.9,30.15,South,171,25.3,25.3,38,0.00,FEW,,0.00,485.0,WeatherDisplay:10.37,2013-03-10 20:15:00,
2013-03-10 16:20:00,65.0,37.4,30.15,SE,134,12.7,12.7,36,0.00,SCT,,0.00,325.0,WeatherDisplay:10.37,2013-03-10 20:20:00,
2013-03-10 16:25:00,64.9,38.0,30.15,SE,144,7.0,7.0,37,0.00,BKN,,0.00,244.0,WeatherDisplay:10.37,2013-03-10 20:25:00,
2013-03-10 16:30:00,64.6,37.7,30.15,SE,130,13.8,13.8,37,0.00,BKN,,0.00,221.0,WeatherDisplay:10.37,2013-03-10 20:30:00,
2013-03-10 16:35:00,64.3,38.1,30.15,SSE,161,15.0,15.0,38,0.00,BKN,,0.00,218.0,WeatherDisplay:10.37,2013-03-10 20:35:00,
2013-03-10 16:40:00,63.7,37.6,30.15,East,96,11.5,11.5,38,0.00,BKN,,0.00,211.0,WeatherDisplay:10.37,2013-03-10 20:40:00,
2013-03-10 16:46:00,63.3,38.6,30.15,SSE,161,4.6,4.6,40,0.00,BKN,,0.00,216.0,WeatherDisplay:10.37,2013-03-10 20:46:00,
2013-03-10 16:51:00,63.1,38.4,30.15,SE,124,12.7,12.7,40,0.00,BKN,,0.00,237.0,WeatherDisplay:10.37,2013-03-10 20:51:00,
2013-03-10 16:56:00,63.1,38.4,30.15,ESE,117,8.1,8.1,40,0.00,BKN,,0.00,288.0,WeatherDisplay:10.37,2013-03-10 20:56:00,
2013-03-10 17:01:00,63.1,39.0,30.15,ESE,109,12.7,12.7,41,0.00,BKN,,0.00,246.0,WeatherDisplay:10.37,2013-03-10 21:01:00,
2013-03-10 17:06:00,62.9,38.8,30.15,SE,133,6.9,6.9,41,0.00,BKN,,0.00,202.0,WeatherDisplay:10.37,2013-03-10 21:06:00,
2013-03-10 17:11:00,62.9,39.4,30.14,ESE,109,10.4,10.4,42,0.00,BKN,,0.00,197.0,WeatherDisplay:10.37,2013-03-10 21:11:00,
2013-03-10 17:16:00,62.8,40.5,30.15,ESE,116,2.3,0.0,44,0.00,BKN,,0.00,204.0,WeatherDisplay:10.37,2013-03-10 21:16:00,
2013-03-10 17:21:00,62.8,40.0,30.14,ESE,112,7.0,7.0,43,0.00,BKN,,0.00,204.0,WeatherDisplay:10.37,2013-03-10 21:21:00,
2013-03-10 17:26:00,62.8,40.0,30.15,SE,131,6.9,6.9,43,0.00,BKN,,0.00,186.0,WeatherDisplay:10.37,2013-03-10 21:26:00,
2013-03-10 17:31:00,62.8,40.0,30.14,ESE,119,10.4,10.4,43,0.00,BKN,,0.00,185.0,WeatherDisplay:10.37,2013-03-10 21:31:00,
2013-03-10 17:36:00,62.6,39.8,30.14,East,89,6.9,6.9,43,0.00,BKN,,0.00,176.0,WeatherDisplay:10.37,2013-03-10 21:36:00,
2013-03-10 17:41:00,62.5,40.3,30.14,SE,133,11.0,11.0,44,0.00,BKN,,0.00,151.0,WeatherDisplay:10.37,2013-03-10 21:41:00,
2013-03-10 17:46:00,62.5,40.3,30.14,ESE,115,6.9,6.9,44,0.00,BKN,,0.00,137.0,WeatherDisplay:10.37,2013-03-10 21:46:00,
2013-03-10 17:51:00,62.4,41.3,30.14,SE,130,10.4,10.4,46,0.00,BKN,,0.00,137.0,WeatherDisplay:10.37,2013-03-10 21:51:00,
2013-03-10 17:56:00,62.2,41.2,30.14,ESE,122,5.8,5.8,46,0.00,BKN,,0.00,141.0,WeatherDisplay:10.37,2013-03-10 21:56:00,
2013-03-10 18:01:00,62.1,40.5,30.14,SSE,161,4.0,4.0,45,0.00,BKN,,0.00,134.0,WeatherDisplay:10.37,2013-03-10 22:01:00,
2013-03-10 18:06:00,62.0,39.8,30.14,ESE,111,9.2,9.2,44,0.00,BKN,,0.00,127.0,WeatherDisplay:10.37,2013-03-10 22:06:00,
2013-03-10 18:11:00,62.0,41.0,30.14,ESE,105,6.9,6.9,46,0.00,BKN,,0.00,125.0,WeatherDisplay:10.37,2013-03-10 22:11:00,
2013-03-10 18:16:00,62.0,41.0,30.14,SE,140,5.0,5.0,46,0.00,BKN,,0.00,123.0,WeatherDisplay:10.37,2013-03-10 22:16:00,
2013-03-10 18:21:00,61.9,40.9,30.14,ESE,108,6.0,6.0,46,0.00,BKN,,0.00,123.0,WeatherDisplay:10.37,2013-03-10 22:21:00,
2013-03-10 18:26:00,61.9,41.4,30.14,ESE,123,9.2,9.2,47,0.00,BKN,,0.00,190.0,WeatherDisplay:10.37,2013-03-10 22:26:00,
2013-03-10 18:32:00,62.2,41.2,30.14,ESE,119,4.0,4.0,46,0.00,BKN,,0.00,125.0,WeatherDisplay:10.37,2013-03-10 22:32:00,
2013-03-10 18:37:00,62.2,41.7,30.14,SE,137,0.0,0.0,47,0.00,BKN,,0.00,179.0,WeatherDisplay:10.37,2013-03-10 22:37:00,
2013-03-10 18:42:00,62.3,40.7,30.13,ESE,107,11.5,11.5,45,0.00,BKN,,0.00,172.0,WeatherDisplay:10.37,2013-03-10 22:42:00,
2013-03-10 18:47:00,62.4,41.3,30.13,ESE,123,3.5,0.0,46,0.00,BKN,,0.00,125.0,WeatherDisplay:10.37,2013-03-10 22:47:00,
2013-03-10 18:52:00,62.6,40.9,30.13,ESE,123,5.8,5.8,45,0.00,BKN,,0.00,118.0,WeatherDisplay:10.37,2013-03-10 22:52:00,
2013-03-10 18:57:00,62.4,40.8,30.13,ESE,103,11.5,11.5,45,0.00,BKN,,0.00,88.0,WeatherDisplay:10.37,2013-03-10 22:57:00,
2013-03-10 19:02:00,62.2,41.2,30.14,ESE,117,6.9,6.9,46,0.00,BKN,,0.00,134.0,WeatherDisplay:10.37,2013-03-10 23:02:00,
2013-03-10 19:08:00,62.2,41.2,30.14,East,101,2.3,2.3,46,0.00,BKN,,0.00,127.0,WeatherDisplay:10.37,2013-03-10 23:08:00,
2013-03-10 19:13:00,62.2,41.2,30.13,East,91,10.4,10.4,46,0.00,BKN,,0.00,113.0,WeatherDisplay:10.37,2013-03-10 23:13:00,
2013-03-10 19:18:00,62.2,41.2,30.13,SE,138,6.9,6.9,46,0.00,BKN,,0.00,88.0,WeatherDisplay:10.37,2013-03-10 23:18:00,
2013-03-10 19:23:00,62.0,41.0,30.13,SE,128,10.4,10.4,46,0.00,BKN,,0.00,60.0,WeatherDisplay:10.37,2013-03-10 23:23:00,
2013-03-10 19:28:00,61.8,40.2,30.13,ESE,105,4.6,4.6,45,0.00,BKN,,0.00,51.0,WeatherDisplay:10.37,2013-03-10 23:28:00,
2013-03-10 19:33:00,61.4,41.0,30.13,East,82,9.2,9.2,47,0.00,CLR,,0.00,32.0,WeatherDisplay:10.37,2013-03-10 23:33:00,
2013-03-10 19:38:00,60.9,41.1,30.13,ESE,113,7.0,7.0,48,0.00,CLR,,0.00,12.0,WeatherDisplay:10.37,2013-03-10 23:38:00,
2013-03-10 19:43:00,60.4,41.1,30.13,ESE,113,6.9,6.9,49,0.00,CLR,,0.00,0.0,WeatherDisplay:10.37,2013-03-10 23:43:00,
2013-03-10 19:48:00,59.9,40.1,30.13,ESE,118,5.8,5.8,48,0.00,CLR,,0.00,0.0,WeatherDisplay:10.37,2013-03-10 23:48:00,
2013-03-10 19:53:00,59.5,40.3,30.12,ESE,117,9.2,9.2,49,0.00,CLR,,0.00,0.0,WeatherDisplay:10.37,2013-03-10 23:53:00,
2013-03-10 19:58:00,58.9,40.3,30.12,ESE,106,4.6,4.6,50,0.00,CLR,,0.00,0.0,WeatherDisplay:10.37,2013-03-10 23:58:00,
2013-03-10 20:03:00,58.4,40.3,30.12,ESE,107,6.9,6.9,51,0.00,CLR,,0.00,0.0,WeatherDisplay:10.37,2013-03-11 00:03:00,
2013-03-10 20:08:00,57.9,39.9,30.12,ESE,113,6.0,6.0,51,0.00,CLR,,0.00,0.0,WeatherDisplay:10.37,2013-03-11 00:08:00,
2013-03-10 20:13:00,57.3,39.8,30.12,East,94,5.8,5.8,52,0.00,CLR,,0.00,0.0,WeatherDisplay:10.37,2013-03-11 00:13:00,
2013-03-10 20:18:00,56.9,39.9,30.12,ESE,111,9.2,9.2,53,0.00,CLR,,0.00,0.0,WeatherDisplay:10.37,2013-03-11 00:18:00,
2013-03-10 20:23:00,56.5,40.0,30.12,ESE,106,6.9,6.9,54,0.00,CLR,,0.00,0.0,WeatherDisplay:10.37,2013-03-11 00:23:00,
2013-03-10 20:28:00,56.0,40.1,30.12,ESE,121,11.5,11.5,55,0.00,CLR,,0.00,0.0,WeatherDisplay:10.37,2013-03-11 00:28:00,
2013-03-10 20:33:00,55.8,39.9,30.13,ESE,115,6.9,6.9,55,0.00,CLR,,0.00,0.0,WeatherDisplay:10.37,2013-03-11 00:33:00,
2013-03-10 20:38:00,55.5,40.0,30.12,East,87,5.8,5.8,56,0.00,CLR,,0.00,0.0,WeatherDisplay:10.37,2013-03-11 00:38:00,
2013-03-10 20:43:00,55.2,39.8,30.12,East,90,8.1,8.1,56,0.00,CLR,,0.00,0.0,WeatherDisplay:10.37,2013-03-11 00:43:00,
2013-03-10 20:48:00,54.9,39.9,30.13,East,89,9.2,9.2,57,0.00,CLR,,0.00,0.0,WeatherDisplay:10.37,2013-03-11 00:48:00,
2013-03-10 20:53:00,54.6,39.7,30.13,East,96,10.4,10.4,57,0.00,CLR,,0.00,0.0,WeatherDisplay:10.37,2013-03-11 00:53:00,
2013-03-10 20:58:00,54.4,39.9,30.12,East,93,8.1,8.1,58,0.00,CLR,,0.00,0.0,WeatherDisplay:10.37,2013-03-11 00:58:00,
2013-03-10 21:03:00,54.1,39.6,30.13,East,96,5.8,5.8,58,0.00,CLR,,0.00,0.0,WeatherDisplay:10.37,2013-03-11 01:03:00,
2013-03-10 21:08:00,53.9,39.5,30.12,East,96,10.4,10.4,58,0.00,CLR,,0.00,0.0,WeatherDisplay:10.37,2013-03-11 01:08:00,
2013-03-10 21:14:00,53.6,39.6,30.12,SE,126,9.2,9.2,59,0.00,CLR,,0.00,0.0,WeatherDisplay:10.37,2013-03-11 01:14:00,
2013-03-10 21:19:00,53.4,39.4,30.12,ESE,104,10.0,10.0,59,0.00,CLR,,0.00,0.0,WeatherDisplay:10.37,2013-03-11 01:19:00,
2013-03-10 21:24:00,53.2,39.2,30.13,ESE,109,9.2,9.2,59,0.00,CLR,,0.00,0.0,WeatherDisplay:10.37,2013-03-11 01:24:00,
2013-03-10 21:29:00,53.0,39.0,30.13,ESE,106,11.0,11.0,59,0.00,CLR,,0.00,0.0,WeatherDisplay:10.37,2013-03-11 01:29:00,
2013-03-10 21:34:00,52.9,39.4,30.13,East,99,9.2,9.2,60,0.00,CLR,,0.00,0.0,WeatherDisplay:10.37,2013-03-11 01:34:00,
2013-03-10 21:39:00,52.7,39.2,30.13,East,99,4.0,4.0,60,0.00,CLR,,0.00,0.0,WeatherDisplay:10.37,2013-03-11 01:39:00,
2013-03-10 21:44:00,52.6,39.1,30.12,ESE,103,10.4,10.4,60,0.00,CLR,,0.00,0.0,WeatherDisplay:10.37,2013-03-11 01:44:00,
2013-03-10 21:49:00,52.5,39.0,30.13,East,100,9.2,9.2,60,0.00,CLR,,0.00,0.0,WeatherDisplay:10.37,2013-03-11 01:49:00,
2013-03-10 21:54:00,52.3,39.2,30.12,SE,134,11.5,11.5,61,0.00,CLR,,0.00,0.0,WeatherDisplay:10.37,2013-03-11 01:54:00,
2013-03-10 21:59:00,52.2,39.1,30.12,ESE,107,9.0,9.0,61,0.00,CLR,,0.00,0.0,WeatherDisplay:10.37,2013-03-11 01:59:00,
2013-03-10 22:04:00,52.0,39.0,30.13,East,94,10.4,10.4,61,0.00,CLR,,0.00,0.0,WeatherDisplay:10.37,2013-03-11 02:04:00,
2013-03-10 22:09:00,51.8,38.8,30.13,East,95,8.1,8.1,61,0.00,CLR,,0.00,0.0,WeatherDisplay:10.37,2013-03-11 02:09:00,
2013-03-10 22:14:00,51.7,39.1,30.13,East,90,10.4,10.4,62,0.00,CLR,,0.00,0.0,WeatherDisplay:10.37,2013-03-11 02:14:00,
2013-03-10 22:19:00,51.5,38.9,30.13,East,96,6.9,6.9,62,0.00,CLR,,0.00,0.0,WeatherDisplay:10.37,2013-03-11 02:19:00,
2013-03-10 22:24:00,51.4,38.8,30.13,East,100,6.9,6.9,62,0.00,CLR,,0.00,0.0,WeatherDisplay:10.37,2013-03-11 02:24:00,
2013-03-10 22:29:00,51.4,38.8,30.14,East,98,6.9,6.9,62,0.00,CLR,,0.00,0.0,WeatherDisplay:10.37,2013-03-11 02:29:00,
2013-03-10 22:34:00,51.4,38.8,30.14,East,101,5.8,5.8,62,0.00,CLR,,0.00,0.0,WeatherDisplay:10.37,2013-03-11 02:34:00,
2013-03-10 22:39:00,51.4,39.2,30.14,ESE,103,8.1,8.1,63,0.00,CLR,,0.00,0.0,WeatherDisplay:10.37,2013-03-11 02:39:00,
2013-03-10 22:44:00,51.4,39.2,30.14,ESE,102,5.8,5.8,63,0.00,CLR,,0.00,0.0,WeatherDisplay:10.37,2013-03-11 02:44:00,
2013-03-10 22:49:00,51.3,39.5,30.14,East,101,3.5,3.5,64,0.00,CLR,,0.00,0.0,WeatherDisplay:10.37,2013-03-11 02:49:00,
2013-03-10 22:54:00,51.2,39.8,30.14,ESE,111,10.4,10.4,65,0.00,CLR,,0.00,0.0,WeatherDisplay:10.37,2013-03-11 02:54:00,
2013-03-10 22:59:00,51.1,40.1,30.14,East,101,4.6,4.6,66,0.00,CLR,,0.00,0.0,WeatherDisplay:10.37,2013-03-11 02:59:00,
2013-03-10 23:04:00,51.0,40.0,30.14,ESE,110,6.9,6.9,66,0.00,CLR,,0.00,0.0,WeatherDisplay:10.37,2013-03-11 03:04:00,
2013-03-10 23:09:00,51.0,40.4,30.13,East,90,5.8,5.8,67,0.00,CLR,,0.00,0.0,WeatherDisplay:10.37,2013-03-11 03:09:00,
2013-03-10 23:14:00,51.2,41.0,30.13,East,85,5.8,5.8,68,0.00,CLR,,0.00,0.0,WeatherDisplay:10.37,2013-03-11 03:14:00,
2013-03-10 23:19:00,51.3,41.1,30.14,ESE,106,10.4,10.4,68,0.00,CLR,,0.00,0.0,WeatherDisplay:10.37,2013-03-11 03:19:00,
2013-03-10 23:24:00,51.4,41.6,30.13,ESE,111,12.7,12.7,69,0.00,CLR,,0.00,0.0,WeatherDisplay:10.37,2013-03-11 03:24:00,
2013-03-10 23:29:00,51.6,42.1,30.13,ESE,120,11.5,11.5,70,0.00,CLR,,0.00,0.0,WeatherDisplay:10.37,2013-03-11 03:29:00,
2013-03-10 23:34:00,51.8,41.9,30.13,East,97,6.9,6.9,69,0.00,CLR,,0.00,0.0,WeatherDisplay:10.37,2013-03-11 03:34:00,
2013-03-10 23:39:00,51.9,42.0,30.13,ESE,110,4.6,4.6,69,0.00,CLR,,0.00,0.0,WeatherDisplay:10.37,2013-03-11 03:39:00,
2013-03-10 23:44:00,52.0,42.5,30.13,ESE,111,9.2,9.2,70,0.00,CLR,,0.00,0.0,WeatherDisplay:10.37,2013-03-11 03:44:00,
2013-03-10 23:49:00,52.0,42.5,30.13,East,96,9.2,9.2,70,0.00,CLR,,0.00,0.0,WeatherDisplay:10.37,2013-03-11 03:49:00,
2013-03-10 23:54:00,52.2,42.7,30.13,ESE,105,4.6,4.6,70,0.00,CLR,,0.00,0.0,WeatherDisplay:10.37,2013-03-11 03:54:00,
2013-03-10 23:59:00,52.4,42.9,30.13,ESE,113,5.8,5.8,70,0.00,CLR,,0.00,0.0,WeatherDisplay:10.37,2013-03-11 03:59:00,